X  CloseMetar Aviation Weather Data     KORD Chicago O'hare International

Temperature

84°F Temperature

77°F Dewpoint

79% Humidity



Wind

 9 MPH

14 KM/H

 4 M/S

 8 KTS



220°
South West
Current Conditions

Partly Cloudy Partly Cloudy
Pressure 1008.42 (hPa) - 29.78 (in)
Visibility 10 (mi) - 16.1 (km)
Airport
Airport-code KORD

Location Chicago O'hare International 10 (mi)

Metar:
KORD 190251Z 22008KT 10SM FEW040 FEW130 SCT250 29/25 A2978 RMK AO2 SLP080 T02940250 53008

Time: 07-18-2019 9:51